createdAt,value
2018-08-18T00:01:01.765Z,99476.31
2018-08-18T00:03:29.999Z,99479.30
2018-08-18T00:05:57.764Z,99486.98
2018-08-18T00:08:25.416Z,99491.66
2018-08-18T00:10:53.159Z,99495.06
2018-08-18T00:13:20.910Z,99501.42
2018-08-18T00:15:48.593Z,99504.40
2018-08-18T00:18:16.289Z,99507.55
2018-08-18T00:20:43.973Z,99512.13
2018-08-18T00:23:11.690Z,99512.00
2018-08-18T00:25:39.369Z,99512.03
2018-08-18T00:28:24.348Z,99514.97
2018-08-18T00:30:52.241Z,99506.09
2018-08-18T00:33:20.028Z,99503.59
2018-08-18T00:35:47.730Z,99502.61
2018-08-18T00:38:15.422Z,99502.34
2018-08-18T00:40:43.122Z,99496.15
2018-08-18T00:43:10.833Z,99496.08
2018-08-18T00:45:38.593Z,99494.81
2018-08-18T00:48:06.302Z,99489.75
2018-08-18T00:50:40.814Z,99490.30
2018-08-18T00:53:09.819Z,99490.75
2018-08-18T00:55:38.050Z,99489.48
2018-08-18T00:58:14.730Z,99483.36
2018-08-18T01:00:42.585Z,99487.16
2018-08-18T01:03:10.350Z,99481.98
2018-08-18T01:05:38.017Z,99484.49
2018-08-18T01:08:06.171Z,99484.88
2018-08-18T01:10:33.837Z,99490.77
2018-08-18T01:13:01.525Z,99485.13
2018-08-18T01:15:29.243Z,99490.37
2018-08-18T01:17:57.132Z,99490.53
2018-08-18T01:20:24.818Z,99491.42
2018-08-18T01:22:57.914Z,99490.23
2018-08-18T01:25:25.622Z,99495.03
2018-08-18T01:27:53.541Z,99488.23
2018-08-18T01:30:21.365Z,99487.31
2018-08-18T01:32:49.020Z,99480.86
2018-08-18T01:35:16.926Z,99478.06
2018-08-18T01:37:44.576Z,99481.70
2018-08-18T01:40:12.274Z,99476.72
2018-08-18T01:42:39.937Z,99475.92
2018-08-18T01:45:07.693Z,99474.34
2018-08-18T01:47:35.369Z,99474.67
2018-08-18T01:50:17.930Z,99473.63
2018-08-18T01:52:45.609Z,99471.20
2018-08-18T01:55:14.647Z,99465.39
2018-08-18T01:57:42.322Z,99463.13
2018-08-18T02:00:26.909Z,99464.58
2018-08-18T02:02:54.612Z,99467.35
2018-08-18T02:05:22.369Z,99464.45
2018-08-18T02:07:50.040Z,99457.55
2018-08-18T02:10:18.045Z,99465.66
2018-08-18T02:12:56.855Z,99464.98
2018-08-18T02:15:24.554Z,99463.64
2018-08-18T02:17:52.208Z,99457.48
2018-08-18T02:20:20.637Z,99463.75
2018-08-18T02:22:48.297Z,99464.89
2018-08-18T02:25:15.993Z,99464.45
2018-08-18T02:27:43.673Z,99473.17
2018-08-18T02:30:19.937Z,99469.02
2018-08-18T02:32:47.638Z,99475.23
2018-08-18T02:35:15.450Z,99476.94
2018-08-18T02:37:43.187Z,99484.16
2018-08-18T02:40:12.314Z,99481.00
2018-08-18T02:42:40.055Z,99477.77
2018-08-18T02:45:08.770Z,99484.94
2018-08-18T02:47:36.474Z,99483.03
2018-08-18T02:50:05.288Z,99491.10
2018-08-18T02:52:34.139Z,99484.94
2018-08-18T02:55:03.009Z,99487.67
2018-08-18T02:57:34.794Z,99481.45
2018-08-18T03:00:04.566Z,99479.52
2018-08-18T03:02:32.254Z,99481.95
2018-08-18T03:04:59.913Z,99485.83
2018-08-18T03:07:38.922Z,99490.73
2018-08-18T03:10:14.929Z,99486.62
2018-08-18T03:12:43.649Z,99486.77
2018-08-18T03:15:13.466Z,99491.70
2018-08-18T03:17:41.146Z,99497.91
2018-08-18T03:20:08.937Z,99509.72
2018-08-18T03:22:40.464Z,99522.59
2018-08-18T03:25:08.136Z,99518.56
2018-08-18T03:27:35.850Z,99537.73
2018-08-18T03:30:03.627Z,99538.70
2018-08-18T03:32:31.306Z,99543.34
2018-08-18T03:34:59.002Z,99544.47
2018-08-18T03:37:28.478Z,99539.77
2018-08-18T03:39:56.301Z,99543.56
2018-08-18T03:42:30.055Z,99540.87
2018-08-18T03:44:57.876Z,99536.09
2018-08-18T03:47:25.981Z,99543.42
2018-08-18T03:49:53.661Z,99548.53
2018-08-18T03:52:21.373Z,99555.52
2018-08-18T03:54:49.054Z,99547.61
2018-08-18T03:57:16.709Z,99545.23
2018-08-18T03:59:44.380Z,99538.77
2018-08-18T04:02:12.062Z,99537.72
2018-08-18T04:04:39.713Z,99540.84
2018-08-18T04:07:08.549Z,99541.44
2018-08-18T04:09:37.399Z,99542.22
2018-08-18T04:12:06.700Z,99538.89
2018-08-18T04:14:39.819Z,99540.77
2018-08-18T04:17:18.411Z,99536.01
2018-08-18T04:19:46.716Z,99534.52
2018-08-18T04:22:14.818Z,99541.39
2018-08-18T04:24:46.499Z,99544.31
2018-08-18T04:27:26.600Z,99541.32
2018-08-18T04:29:54.287Z,99545.78
2018-08-18T04:32:21.934Z,99549.11
2018-08-18T04:34:49.594Z,99546.39
2018-08-18T04:37:17.384Z,99552.88
2018-08-18T04:39:45.053Z,99561.71
2018-08-18T04:42:12.759Z,99561.22
2018-08-18T04:44:40.496Z,99562.69
2018-08-18T04:47:08.624Z,99559.64
2018-08-18T04:49:36.421Z,99558.31
2018-08-18T04:52:04.111Z,99563.28
2018-08-18T04:54:31.781Z,99574.06
2018-08-18T04:56:59.508Z,99590.19
2018-08-18T04:59:27.227Z,99599.67
2018-08-18T05:01:54.951Z,99604.21
2018-08-18T05:04:22.614Z,99600.84
2018-08-18T05:06:50.285Z,99597.13
2018-08-18T05:09:17.966Z,99592.11
2018-08-18T05:11:45.763Z,99597.09
2018-08-18T05:14:13.427Z,99587.17
2018-08-18T05:16:41.101Z,99585.39
2018-08-18T05:19:08.840Z,99587.21
2018-08-18T05:21:36.506Z,99590.77
2018-08-18T05:24:23.317Z,99594.02
2018-08-18T05:26:52.039Z,99589.72
2018-08-18T05:29:19.709Z,99585.03
2018-08-18T05:31:47.393Z,99587.83
2018-08-18T05:34:15.170Z,99588.85
2018-08-18T05:36:43.504Z,99590.50
2018-08-18T05:39:11.169Z,99595.22
2018-08-18T05:41:38.895Z,99589.92
2018-08-18T05:44:06.733Z,99590.80
2018-08-18T05:46:34.397Z,99593.66
2018-08-18T05:49:07.649Z,99595.38
2018-08-18T05:51:41.578Z,99610.38
2018-08-18T05:54:10.779Z,99599.39
2018-08-18T05:56:39.582Z,99610.59
2018-08-18T05:59:07.262Z,99603.92
2018-08-18T06:01:36.527Z,99602.81
2018-08-18T06:04:10.305Z,99602.60
2018-08-18T06:06:38.277Z,99603.80
2018-08-18T06:09:08.503Z,99606.95
2018-08-18T06:11:36.309Z,99609.25
2018-08-18T06:14:04.215Z,99607.64
2018-08-18T06:16:31.878Z,99608.66
2018-08-18T06:18:59.574Z,99609.86
2018-08-18T06:21:27.270Z,99614.47
2018-08-18T06:23:54.946Z,99618.06
2018-08-18T06:26:24.803Z,99623.73
2018-08-18T06:28:52.586Z,99627.31
2018-08-18T06:31:20.311Z,99628.97
2018-08-18T06:33:47.989Z,99646.83
2018-08-18T06:36:15.661Z,99645.16
2018-08-18T06:38:43.309Z,99645.78
2018-08-18T06:41:11.118Z,99647.94
2018-08-18T06:43:38.776Z,99647.27
2018-08-18T06:46:06.454Z,99650.13
2018-08-18T06:48:35.590Z,99652.67
2018-08-18T06:51:03.530Z,99655.63
2018-08-18T06:53:36.753Z,99652.67
2018-08-18T06:56:04.543Z,99645.64
2018-08-18T06:58:32.278Z,99644.70
2018-08-18T07:00:59.950Z,99647.69
2018-08-18T07:03:34.093Z,99648.00
2018-08-18T07:06:02.639Z,99638.88
2018-08-18T07:08:31.906Z,99632.92
2018-08-18T07:10:59.743Z,99631.95
2018-08-18T07:13:27.562Z,99625.00
2018-08-18T07:15:55.225Z,99621.02
2018-08-18T07:18:22.893Z,99627.87
2018-08-18T07:20:50.550Z,99630.99
2018-08-18T07:23:18.210Z,99632.72
2018-08-18T07:25:51.459Z,99630.70
2018-08-18T07:28:20.376Z,99631.34
2018-08-18T07:30:48.127Z,99632.12
2018-08-18T07:33:15.868Z,99629.81
2018-08-18T07:35:43.524Z,99639.97
2018-08-18T07:38:11.212Z,99626.45
2018-08-18T07:40:45.133Z,99627.19
2018-08-18T07:43:32.198Z,99629.14
2018-08-18T07:46:01.388Z,99619.52
2018-08-18T07:48:29.119Z,99616.16
2018-08-18T07:50:56.818Z,99617.06
2018-08-18T07:53:24.508Z,99617.56
2018-08-18T07:55:52.325Z,99616.83
2018-08-18T07:58:23.176Z,99612.94
2018-08-18T08:00:50.982Z,99606.79
2018-08-18T08:03:19.206Z,99620.94
2018-08-18T08:05:46.942Z,99610.03
2018-08-18T08:08:14.669Z,99613.79
2018-08-18T08:10:42.480Z,99625.47
2018-08-18T08:13:10.730Z,99621.73
2018-08-18T08:15:38.449Z,99620.91
2018-08-18T08:18:06.259Z,99610.63
2018-08-18T08:20:33.949Z,99612.30
2018-08-18T08:23:01.697Z,99605.03
2018-08-18T08:25:29.393Z,99607.23
2018-08-18T08:27:57.079Z,99595.55
2018-08-18T08:30:25.930Z,99588.89
2018-08-18T08:32:53.721Z,99607.13
2018-08-18T08:35:21.425Z,99592.98
2018-08-18T08:37:51.429Z,99586.86
2018-08-18T08:40:20.361Z,99590.77
2018-08-18T08:42:48.014Z,99579.81
2018-08-18T08:45:17.076Z,99583.57
2018-08-18T08:47:45.797Z,99574.45
2018-08-18T08:50:15.418Z,99581.17
2018-08-18T08:52:54.941Z,99576.62
2018-08-18T08:55:24.054Z,99566.77
2018-08-18T08:57:51.820Z,99569.91
2018-08-18T09:00:19.510Z,99573.25
2018-08-18T09:02:47.237Z,99576.77
2018-08-18T09:05:15.133Z,99565.11
2018-08-18T09:07:43.202Z,99574.55
2018-08-18T09:10:12.563Z,99579.42
2018-08-18T09:12:40.280Z,99569.15
2018-08-18T09:15:09.315Z,99565.46
2018-08-18T09:17:36.993Z,99563.80
2018-08-18T09:20:06.444Z,99570.69
2018-08-18T09:22:41.800Z,99560.67
2018-08-18T09:25:15.039Z,99558.98
2018-08-18T09:27:47.202Z,99559.10
2018-08-18T09:30:14.911Z,99557.83
2018-08-18T09:32:42.585Z,99554.24
2018-08-18T09:35:10.299Z,99558.27
2018-08-18T09:37:38.154Z,99553.88
2018-08-18T09:40:05.939Z,99552.37
2018-08-18T09:42:33.639Z,99554.39
2018-08-18T09:45:01.639Z,99550.53
2018-08-18T09:47:29.328Z,99551.68
2018-08-18T09:49:57.018Z,99546.33
2018-08-18T09:52:24.855Z,99543.20
2018-08-18T09:54:54.422Z,99547.59
2018-08-18T09:57:22.123Z,99545.68
2018-08-18T09:59:49.883Z,99544.07
2018-08-18T10:02:17.608Z,99542.98
2018-08-18T10:04:45.306Z,99541.34
2018-08-18T10:07:12.979Z,99535.63
2018-08-18T10:09:40.661Z,99539.08
2018-08-18T10:12:08.405Z,99541.59
2018-08-18T10:14:36.125Z,99537.30
2018-08-18T10:17:03.945Z,99537.88
2018-08-18T10:19:32.528Z,99537.16
2018-08-18T10:22:00.727Z,99534.26
2018-08-18T10:24:28.545Z,99535.14
2018-08-18T10:27:06.247Z,99534.66
2018-08-18T10:29:33.903Z,99527.05
2018-08-18T10:32:01.636Z,99522.03
2018-08-18T10:34:30.655Z,99521.84
2018-08-18T10:36:59.845Z,99509.23
2018-08-18T10:39:27.571Z,99516.25
2018-08-18T10:42:05.961Z,99511.20
2018-08-18T10:44:33.999Z,99513.80
2018-08-18T10:47:13.546Z,99508.03
2018-08-18T10:49:52.338Z,99512.27
2018-08-18T10:52:32.418Z,99505.50
2018-08-18T10:55:06.954Z,99505.01
2018-08-18T10:57:46.698Z,99496.86
2018-08-18T11:00:17.615Z,99512.41
2018-08-18T11:02:47.547Z,99510.34
2018-08-18T11:05:15.886Z,99506.36
2018-08-18T11:07:49.338Z,99496.78
2018-08-18T11:10:17.062Z,99492.81
2018-08-18T11:12:44.767Z,99499.88
2018-08-18T11:15:13.119Z,99494.14
2018-08-18T11:17:40.957Z,99494.31
2018-08-18T11:20:14.283Z,99497.19
2018-08-18T11:23:14.759Z,99488.04
2018-08-18T11:25:51.480Z,99489.41
2018-08-18T11:28:19.896Z,99480.80
2018-08-18T11:30:49.243Z,99487.87
2018-08-18T11:33:34.010Z,99489.05
2018-08-18T11:36:02.133Z,99481.70
2018-08-18T11:38:30.011Z,99491.05
2018-08-18T11:40:58.499Z,99481.70
2018-08-18T11:43:27.019Z,99477.95
2018-08-18T11:45:54.699Z,99483.59
2018-08-18T11:48:23.258Z,99483.67
2018-08-18T11:50:52.292Z,99479.50
2018-08-18T11:53:20.212Z,99473.86
2018-08-18T11:55:47.943Z,99481.91
2018-08-18T11:58:17.590Z,99475.57
2018-08-18T12:01:03.876Z,99458.86
2018-08-18T12:03:33.445Z,99470.30
2018-08-18T12:06:03.050Z,99466.30
2018-08-18T12:08:33.025Z,99463.48
2018-08-18T12:11:03.412Z,99456.22
2018-08-18T12:13:36.590Z,99470.09
2018-08-18T12:16:11.623Z,99472.30
2018-08-18T12:18:40.690Z,99465.16
2018-08-18T12:21:08.633Z,99466.08
2018-08-18T12:23:37.465Z,99466.58
2018-08-18T12:26:13.889Z,99464.00
2018-08-18T12:28:48.738Z,99456.84
2018-08-18T12:31:18.629Z,99457.84
2018-08-18T12:33:46.385Z,99451.19
2018-08-18T12:36:14.230Z,99453.58
2018-08-18T12:38:45.408Z,99446.38
2018-08-18T12:41:13.250Z,99448.44
2018-08-18T12:43:43.405Z,99442.55
2018-08-18T12:46:12.857Z,99434.16
2018-08-18T12:48:41.687Z,99430.66
2018-08-18T12:51:10.598Z,99426.06
2018-08-18T12:53:44.038Z,99419.49
2018-08-18T12:56:13.174Z,99428.69
2018-08-18T12:58:41.150Z,99429.11
2018-08-18T13:01:08.714Z,99423.83
2018-08-18T13:03:36.411Z,99419.50
2018-08-18T13:06:04.285Z,99424.88
2018-08-18T13:08:31.949Z,99411.84
2018-08-18T13:10:59.694Z,99410.81
2018-08-18T13:13:27.480Z,99406.30
2018-08-18T13:15:55.882Z,99410.75
2018-08-18T13:18:23.863Z,99410.14
2018-08-18T13:20:53.136Z,99400.33
2018-08-18T13:23:22.981Z,99400.38
2018-08-18T13:25:51.138Z,99402.42
2018-08-18T13:28:18.882Z,99402.72
2018-08-18T13:30:46.591Z,99399.77
2018-08-18T13:33:14.343Z,99393.88
2018-08-18T13:35:42.083Z,99392.38
2018-08-18T13:38:25.386Z,99401.07
2018-08-18T13:40:53.502Z,99402.45
2018-08-18T13:43:51.946Z,99403.26
2018-08-18T13:46:29.581Z,99399.15
2018-08-18T13:49:02.230Z,99389.05
2018-08-18T13:51:30.205Z,99389.56
2018-08-18T13:53:58.440Z,99390.87
2018-08-18T13:56:27.290Z,99388.65
2018-08-18T13:58:55.886Z,99379.55
2018-08-18T14:01:34.497Z,99384.98
2018-08-18T14:04:02.483Z,99381.45
2018-08-18T14:06:37.618Z,99376.55
2018-08-18T14:09:06.327Z,99377.05
2018-08-18T14:11:34.033Z,99380.42
2018-08-18T14:14:01.777Z,99370.57
2018-08-18T14:16:30.517Z,99369.33
2018-08-18T14:18:58.583Z,99365.31
2018-08-18T14:21:26.333Z,99368.46
2018-08-18T14:23:54.040Z,99365.62
2018-08-18T14:26:21.761Z,99366.01
2018-08-18T14:28:49.460Z,99369.99
2018-08-18T14:31:17.173Z,99375.42
2018-08-18T14:33:45.221Z,99371.22
2018-08-18T14:36:14.802Z,99368.81
2018-08-18T14:38:44.194Z,99372.14
2018-08-18T14:41:12.760Z,99367.29
2018-08-18T14:43:41.476Z,99366.31
2018-08-18T14:46:13.062Z,99369.65
2018-08-18T14:48:41.063Z,99378.50
2018-08-18T14:51:08.922Z,99386.13
2018-08-18T14:53:41.089Z,99427.05
2018-08-18T14:56:08.777Z,99451.65
2018-08-18T14:58:36.591Z,99484.39
2018-08-18T15:01:12.476Z,99473.42
2018-08-18T15:03:40.855Z,99497.55
2018-08-18T15:06:08.918Z,99497.09
2018-08-18T15:08:36.629Z,99483.52
2018-08-18T15:11:04.374Z,99490.63
2018-08-18T15:13:32.065Z,99495.83
2018-08-18T15:15:59.742Z,99495.94
2018-08-18T15:18:27.424Z,99493.44
2018-08-18T15:20:55.186Z,99500.51
2018-08-18T15:23:22.978Z,99498.17
2018-08-18T15:25:50.669Z,99535.05
2018-08-18T15:28:19.504Z,99522.02
2018-08-18T15:30:48.650Z,99534.95
2018-08-18T15:33:18.209Z,99538.84
2018-08-18T15:35:45.993Z,99536.09
2018-08-18T15:38:13.816Z,99515.75
2018-08-18T15:40:41.643Z,99510.52
2018-08-18T15:43:09.538Z,99490.14
2018-08-18T15:45:47.266Z,99465.08
2018-08-18T15:48:14.981Z,99453.05
2018-08-18T15:50:42.653Z,99436.30
2018-08-18T15:53:10.326Z,99436.50
2018-08-18T15:55:37.982Z,99440.66
2018-08-18T15:58:06.011Z,99432.09
2018-08-18T16:00:36.164Z,99433.50
2018-08-18T16:03:04.425Z,99440.19
2018-08-18T16:05:32.595Z,99440.64
2018-08-18T16:08:00.535Z,99449.73
2018-08-18T16:10:28.618Z,99452.80
2018-08-18T16:12:56.705Z,99467.04
2018-08-18T16:15:24.836Z,99458.91
2018-08-18T16:17:53.317Z,99463.59
2018-08-18T16:20:21.725Z,99465.30
2018-08-18T16:22:51.414Z,99472.59
2018-08-18T16:25:32.514Z,99496.53
2018-08-18T16:28:00.351Z,99505.27
2018-08-18T16:30:28.009Z,99522.02
2018-08-18T16:33:08.873Z,99519.21
2018-08-18T16:35:37.812Z,99522.88
2018-08-18T16:38:05.501Z,99526.05
2018-08-18T16:40:33.700Z,99531.23
2018-08-18T16:43:02.935Z,99527.91
2018-08-18T16:45:30.649Z,99525.84
2018-08-18T16:47:58.383Z,99531.89
2018-08-18T16:50:26.050Z,99536.31
2018-08-18T16:52:53.744Z,99524.56
2018-08-18T16:55:21.462Z,99529.20
2018-08-18T16:57:49.129Z,99529.22
2018-08-18T17:00:16.815Z,99525.31
2018-08-18T17:02:44.496Z,99528.18
2018-08-18T17:05:12.139Z,99523.50
2018-08-18T17:07:41.550Z,99521.88
2018-08-18T17:10:09.351Z,99523.48
2018-08-18T17:12:37.010Z,99525.77
2018-08-18T17:15:05.949Z,99528.20
2018-08-18T17:17:33.861Z,99527.94
2018-08-18T17:20:01.615Z,99533.04
2018-08-18T17:22:29.305Z,99532.20
2018-08-18T17:24:57.011Z,99531.80
2018-08-18T17:27:27.527Z,99530.54
2018-08-18T17:29:55.196Z,99535.63
2018-08-18T17:32:25.521Z,99544.49
2018-08-18T17:34:53.209Z,99540.43
2018-08-18T17:37:20.890Z,99540.36
2018-08-18T17:39:48.585Z,99535.52
2018-08-18T17:42:16.290Z,99534.90
2018-08-18T17:44:44.011Z,99534.90
2018-08-18T17:47:12.122Z,99543.90
2018-08-18T17:50:02.094Z,99538.34
2018-08-18T17:52:29.898Z,99541.39
2018-08-18T17:55:21.917Z,99551.92
2018-08-18T17:57:49.589Z,99557.16
2018-08-18T18:00:21.971Z,99559.73
2018-08-18T18:02:55.650Z,99569.80
2018-08-18T18:05:25.711Z,99572.93
2018-08-18T18:07:57.655Z,99577.56
2018-08-18T18:10:28.390Z,99589.37
2018-08-18T18:12:56.160Z,99593.80
2018-08-18T18:15:35.600Z,99600.09
2018-08-18T18:18:03.542Z,99598.24
2018-08-18T18:20:32.499Z,99602.63
2018-08-18T18:23:00.226Z,99609.22
2018-08-18T18:25:28.120Z,99616.41
2018-08-18T18:27:55.850Z,99620.83
2018-08-18T18:30:26.213Z,99617.51
2018-08-18T18:32:54.000Z,99611.42
2018-08-18T18:35:22.929Z,99616.97
2018-08-18T18:37:50.993Z,99610.62
2018-08-18T18:40:18.721Z,99613.93
2018-08-18T18:42:46.478Z,99619.72
2018-08-18T18:45:14.156Z,99618.62
2018-08-18T18:47:45.253Z,99622.99
2018-08-18T18:50:16.910Z,99622.16
2018-08-18T18:52:44.699Z,99623.80
2018-08-18T18:55:12.436Z,99633.17
2018-08-18T18:58:12.627Z,99632.66
2018-08-18T19:00:44.615Z,99638.09
2018-08-18T19:03:12.376Z,99636.43
2018-08-18T19:05:40.034Z,99631.81
2018-08-18T19:08:11.214Z,99633.47
2018-08-18T19:10:38.917Z,99627.94
2018-08-18T19:13:07.205Z,99627.94
2018-08-18T19:15:34.882Z,99634.56
2018-08-18T19:18:02.573Z,99634.83
2018-08-18T19:20:30.691Z,99639.52
2018-08-18T19:23:08.901Z,99640.30
2018-08-18T19:25:37.680Z,99636.19
2018-08-18T19:28:05.441Z,99636.69
2018-08-18T19:30:33.825Z,99646.66
2018-08-18T19:33:01.796Z,99656.80
2018-08-18T19:35:48.197Z,99650.23
2018-08-18T19:38:16.418Z,99648.02
2018-08-18T19:40:45.346Z,99642.23
2018-08-18T19:43:15.122Z,99645.83
2018-08-18T19:45:43.045Z,99643.61
2018-08-18T19:48:11.932Z,99640.31
2018-08-18T19:50:48.957Z,99637.85
2018-08-18T19:53:17.507Z,99627.67
2018-08-18T19:55:45.183Z,99628.50
2018-08-18T19:58:12.855Z,99623.55
2018-08-18T20:00:40.513Z,99621.63
2018-08-18T20:03:10.701Z,99624.91
2018-08-18T20:05:38.414Z,99633.47
2018-08-18T20:08:06.258Z,99641.13
2018-08-18T20:11:09.538Z,99645.86
2018-08-18T20:13:37.209Z,99647.77
2018-08-18T20:16:04.893Z,99650.25
2018-08-18T20:18:32.961Z,99656.83
2018-08-18T20:21:00.658Z,99673.59
2018-08-18T20:23:28.354Z,99670.28
2018-08-18T20:25:56.068Z,99669.70
2018-08-18T20:28:23.776Z,99678.64
2018-08-18T20:30:51.568Z,99681.73
2018-08-18T20:33:19.280Z,99684.81
2018-08-18T20:35:46.977Z,99676.54
2018-08-18T20:38:14.660Z,99685.30
2018-08-18T20:40:42.352Z,99685.33
2018-08-18T20:43:10.063Z,99683.70
2018-08-18T20:45:43.243Z,99679.03
2018-08-18T20:48:14.033Z,99681.20
2018-08-18T20:50:41.695Z,99679.02
2018-08-18T20:53:11.343Z,99684.29
2018-08-18T20:55:39.232Z,99686.22
2018-08-18T20:58:06.897Z,99686.20
2018-08-18T21:00:34.584Z,99682.66
2018-08-18T21:03:02.242Z,99682.66
2018-08-18T21:05:29.917Z,99690.09
2018-08-18T21:08:02.932Z,99687.63
2018-08-18T21:10:30.585Z,99680.19
2018-08-18T21:12:58.258Z,99679.31
2018-08-18T21:15:25.928Z,99680.16
2018-08-18T21:17:53.753Z,99681.55
2018-08-18T21:20:21.445Z,99685.09
2018-08-18T21:22:49.092Z,99691.44
2018-08-18T21:25:16.777Z,99688.69
2018-08-18T21:27:44.437Z,99695.27
2018-08-18T21:30:14.258Z,99703.21
2018-08-18T21:32:41.949Z,99708.92
2018-08-18T21:35:09.721Z,99701.51
2018-08-18T21:37:37.435Z,99697.81
2018-08-18T21:40:06.446Z,99700.62
2018-08-18T21:42:34.117Z,99700.58
2018-08-18T21:45:01.834Z,99696.30
2018-08-18T21:47:29.503Z,99700.42
2018-08-18T21:49:57.216Z,99704.06
2018-08-18T21:52:24.926Z,99703.73
2018-08-18T21:54:52.579Z,99694.67
2018-08-18T21:57:20.292Z,99696.38
2018-08-18T21:59:57.736Z,99704.36
2018-08-18T22:02:38.655Z,99704.95
2018-08-18T22:05:08.282Z,99707.84
2018-08-18T22:07:43.927Z,99712.33
2018-08-18T22:10:11.634Z,99714.02
2018-08-18T22:12:39.729Z,99720.06
2018-08-18T22:15:13.834Z,99722.77
2018-08-18T22:17:41.585Z,99730.02
2018-08-18T22:20:09.311Z,99732.16
2018-08-18T22:22:37.078Z,99729.73
2018-08-18T22:25:04.966Z,99740.54
2018-08-18T22:27:34.398Z,99735.30
2018-08-18T22:30:02.175Z,99739.64
2018-08-18T22:32:29.960Z,99744.23
2018-08-18T22:34:57.699Z,99745.88
2018-08-18T22:37:25.398Z,99738.99
2018-08-18T22:39:53.179Z,99733.95
2018-08-18T22:42:21.073Z,99734.72
2018-08-18T22:44:48.734Z,99730.06
2018-08-18T22:47:16.433Z,99732.22
2018-08-18T22:49:44.124Z,99733.13
2018-08-18T22:52:11.867Z,99729.61
2018-08-18T22:54:39.530Z,99731.73
2018-08-18T22:57:07.191Z,99724.08
2018-08-18T22:59:34.872Z,99726.55
2018-08-18T23:02:02.657Z,99730.93
2018-08-18T23:04:33.029Z,99742.38
2018-08-18T23:07:01.894Z,99736.92
2018-08-18T23:09:30.270Z,99739.02
2018-08-18T23:14:29.277Z,99744.18
2018-08-18T23:16:57.075Z,99748.06
2018-08-18T23:19:24.789Z,99748.63
2018-08-18T23:21:52.493Z,99756.28
2018-08-18T23:24:32.066Z,99748.83
2018-08-18T23:27:00.188Z,99756.02
2018-08-18T23:29:28.042Z,99751.45
2018-08-18T23:31:55.927Z,99752.73
2018-08-18T23:34:23.927Z,99751.59
2018-08-18T23:36:58.261Z,99756.51
2018-08-18T23:39:25.928Z,99758.11
2018-08-18T23:42:05.189Z,99757.99
2018-08-18T23:44:32.863Z,99760.77
2018-08-18T23:47:00.525Z,99769.98
2018-08-18T23:49:28.186Z,99764.50
2018-08-18T23:51:56.295Z,99744.19
2018-08-18T23:54:24.330Z,99746.97
2018-08-18T23:56:52.366Z,99745.20
2018-08-18T23:59:21.915Z,99738.84
